ADDS METAR Data INFO
IDs: Format: Raw Decoded Include TAF

Data at: 0346 UTC 20 Feb 2018

KHVN 200310Z AUTO 17003KT 1 3/4SM -RA BR OVC004 07/06 A3034 RMK AO2 P0002 T00670061
KHVN 200300Z 17003KT 2SM -RA BR OVC004 07/06 A3034 RMK AO2 P0001 T00720061
KHVN 200253Z 00000KT 2SM -RA BR OVC005 07/06 A3034 RMK AO2 SLP274 P0003 60009 T00720061 58002
KHVN 200231Z 16004KT 2 1/2SM -RA BR OVC004 07/06 A3035 RMK AO2 P0002 T00720061
KHVN 200200Z 20004KT 4SM -RA BR OVC007 07/06 A3036 RMK AO2 P0000 T00670056
KHVN 200153Z 20005KT 3SM -RA BR OVC004 07/06 A3036 RMK AO2 RAE10B32 SLP279 P0004 T00670056
KHVN 200053Z 19003KT 5SM -RA BR BKN009 OVC014 06/04 A3035 RMK AO2 RAB07E16B41 SLP275 P0002 T00610044
KHVN 200027Z 00000KT 9SM OVC009 06/04 A3035 RMK AO2 RAB07E16 P0001 T00610044
KHVN 192353Z 18005KT 10SM BKN012 OVC028 06/04 A3035 RMK AO2 RAE2259 SLP276 P0000 60005 T00610044 10078 20056 58008
KHVN 192346Z 19004KT 10SM BKN012 OVC028 06/04 A3035 RMK AO2 RAE2259 P0000 T00610044
KHVN 192253Z 18004KT 8SM -RA FEW018 OVC029 06/04 A3037 RMK AO2 SLP282 P0004 T00610039
KHVN 192251Z 18005KT 7SM -RA FEW017 OVC029 06/04 A3037 RMK AO2 P0004
KHVN 192244Z 19004KT 6SM -RA BR FEW017 OVC031 06/04 A3037 RMK AO2 P0004 T00610039
KHVN 192207Z 00000KT 6SM -RA BR FEW017 BKN023 OVC035 06/03 A3037 RMK AO2 P0001 T00560033
KHVN 192153Z 18003KT 7SM -RA SCT019 OVC031 06/03 A3037 RMK AO2 RAB29 SLP285 P0001 T00610033
KHVN 192053Z 17003KT 10SM OVC037 07/03 A3039 RMK AO2 SLP291 T00670028 56015
KHVN 191953Z 21004KT 10SM OVC044 07/03 A3040 RMK AO2 SLP295 T00720028
KHVN 191853Z 18005KT 10SM OVC048 07/02 A3041 RMK AO2 SLP296 T00670017
KHVN 191753Z 19005KT 10SM OVC050 08/02 A3044 RMK AO2 SLP306 T00780017 10078 21050 58031
KHVN 191653Z 20005KT 10SM FEW030 BKN120 06/01 A3048 RMK AO2 SLP322 T00610011
KHVN 191553Z 18007KT 10SM CLR 06/01 A3051 RMK AO2 SLP330 T00610011
KHVN 191453Z 18006KT 10SM CLR 05/01 A3053 RMK AO2 SLP337 T00500006 58003
KHVN 191353Z 16004KT 10SM CLR 04/01 A3054 RMK AO2 SLP342 T00390006
KHVN 191253Z 00000KT 7SM FEW030 M02/M02 A3054 RMK AO2 SLP341 T10171017
KHVN 191153Z 07003KT 6SM BR CLR M05/M07 A3054 RMK AO2 SLP340 I1000 I6000 T10501067 11033 21050 50003
KHVN 191053Z AUTO 00000KT 8SM CLR M04/M07 A3054 RMK AO2 SLP342 I1000 T10441067
KHVN 190953Z AUTO 36003KT 9SM CLR M04/M07 A3053 RMK AO2 SLP338 I1000 T10441067
KHVN 190853Z AUTO 00000KT 8SM CLR M04/M07 A3053 RMK AO2 SLP337 I1000 I3000 T10441067 58002
KHVN 190753Z AUTO 00000KT 9SM CLR M04/M07 A3053 RMK AO2 SLP338 I1000 T10441067
KHVN 190653Z AUTO 00000KT 9SM CLR M05/M07 A3054 RMK AO2 SLP339 I1000 T10501067
KHVN 190553Z AUTO 00000KT 10SM CLR M04/M07 A3054 RMK AO2 SLP339 I1000 I6000 T10441067 10017 21050 50003
KHVN 190453Z AUTO 00000KT 10SM CLR M03/M06 A3054 RMK AO2 SLP340 T10331056 400721044
KHVN 190353Z AUTO 00000KT 10SM CLR M03/M05 A3054 RMK AO2 SLP342 T10281050
KHVN 190253Z 01003KT 10SM CLR M01/M04 A3053 RMK AO2 SLP336 T10111039 52025
KHVN 190153Z 35003KT 10SM CLR M01/M04 A3050 RMK AO2 SLP327 T10111044
KHVN 190053Z 00000KT 10SM CLR M01/M04 A3048 RMK AO2 SLP319 T10061044
KHVN 182353Z 00000KT 10SM CLR 02/M04 A3045 RMK AO2 SLP311 T00171039 10072 20017 53033
KHVN 182253Z 27003KT 10SM CLR 04/M03 A3041 RMK AO2 SLP297 T00391028
KHVN 182153Z VRB03KT 10SM CLR 07/M05 A3037 RMK AO2 SLP285 T00671050
KHVN 182053Z 29005KT 10SM CLR 07/M05 A3035 RMK AO2 SLP278 T00671050 53018
KHVN 181953Z 30009KT 10SM CLR 07/M05 A3033 RMK AO2 SLP272 T00671050
KHVN 181853Z 34008KT 10SM CLR 07/M06 A3032 RMK AO2 SLP265 T00671056
KHVN 181753Z 31007G14KT 10SM FEW040 06/M06 A3030 RMK AO2 SLP260 T00611056 10067 21022 53033
KHVN 181653Z 31007KT 10SM FEW040 06/M05 A3026 RMK AO2 SLP246 T00561050
KHVN 181553Z 32011G19KT 10SM FEW030 04/M06 A3024 RMK AO2 PK WND 33026/1535 PRESRR SLP239 T00441056